Time;durP1;ratioP1;P1;durP2;ratioP2;P2;SDS_P1;SDS_P2;PMS_P1;PMS_P2;Temp;Humidity;BMP_temperature;BMP_pressure;BME280_temperature;BME280_humidity;BME280_pressure;Samples;Min_cycle;Max_cycle;Signal;HPM_P1;HPM_P2
2021/08/31 00:00:55;;;;;;;0.40;0.20;;;15.50;99.90;;;;;;5032177;28;20201;-73
2021/08/31 00:03:21;;;;;;;0.40;0.20;;;15.60;99.90;;;;;;5033608;28;20710;-73
2021/08/31 00:05:46;;;;;;;1.40;0.97;;;15.30;99.90;;;;;;5033466;28;20260;-73
2021/08/31 00:08:12;;;;;;;0.37;0.20;;;15.20;99.90;;;;;;5032209;28;20651;-73
2021/08/31 00:10:37;;;;;;;0.40;0.17;;;15.00;99.90;;;;;;5033408;28;20200;-73
2021/08/31 00:13:03;;;;;;;0.40;0.20;;;15.00;99.90;;;;;;5032266;28;20237;-73
2021/08/31 00:15:30;;;;;;;0.40;0.40;;;14.90;99.90;;;;;;5033190;28;20247;-73
2021/08/31 00:18:00;;;;;;;0.40;0.20;;;14.80;99.90;;;;;;5032374;28;20586;-73
2021/08/31 00:20:25;;;;;;;0.40;0.20;;;14.80;99.90;;;;;;5033117;28;20165;-73
2021/08/31 00:22:51;;;;;;;1.30;0.83;;;14.80;99.90;;;;;;5033286;28;20539;-73
2021/08/31 00:25:16;;;;;;;8.13;2.93;;;14.70;99.90;;;;;;5033158;28;20181;-73
2021/08/31 00:27:42;;;;;;;1.57;0.87;;;14.70;99.90;;;;;;5033106;28;20204;-73
2021/08/31 00:30:08;;;;;;;0.50;0.40;;;14.60;99.90;;;;;;5032981;28;20192;-73
2021/08/31 00:32:33;;;;;;;1.10;1.10;;;14.60;99.90;;;;;;5033161;28;20206;-73
2021/08/31 00:34:59;;;;;;;0.40;0.20;;;14.50;99.90;;;;;;5032310;28;20178;-73
2021/08/31 00:37:25;;;;;;;0.63;0.57;;;14.50;99.90;;;;;;5032158;28;20181;-73
2021/08/31 00:39:50;;;;;;;0.87;0.87;;;14.40;99.90;;;;;;5033003;28;20177;-73
2021/08/31 00:42:16;;;;;;;0.57;0.53;;;14.30;99.90;;;;;;5032214;28;20205;-73
2021/08/31 00:44:41;;;;;;;0.87;0.63;;;14.30;99.90;;;;;;5034647;28;20185;-73
2021/08/31 00:47:07;;;;;;;0.60;0.60;;;14.30;99.90;;;;;;5037017;28;20268;-72
2021/08/31 00:49:33;;;;;;;0.40;0.20;;;14.30;99.90;;;;;;5036704;28;20174;-72
2021/08/31 00:51:58;;;;;;;1.20;1.17;;;14.30;99.90;;;;;;5036613;28;20599;-72
2021/08/31 00:54:26;;;;;;;9.40;2.63;;;14.20;99.90;;;;;;5036604;28;20500;-72
2021/08/31 00:56:52;;;;;;;0.60;0.40;;;14.30;99.90;;;;;;5036401;28;20548;-72
2021/08/31 00:59:20;;;;;;;1.00;1.00;;;14.20;99.90;;;;;;5036151;28;20689;-72
2021/08/31 01:01:50;;;;;;;0.30;0.20;;;14.10;99.90;;;;;;5035363;28;20690;-72
2021/08/31 01:04:20;;;;;;;0.30;0.20;;;14.10;99.90;;;;;;5036316;28;20189;-72
2021/08/31 01:06:47;;;;;;;0.40;0.38;;;14.20;99.90;;;;;;5036195;28;20625;-72
2021/08/31 01:09:13;;;;;;;0.55;0.55;;;14.20;99.90;;;;;;5035165;28;20216;-73
2021/08/31 01:11:39;;;;;;;0.30;0.20;;;14.20;99.90;;;;;;5035995;28;20178;-73
2021/08/31 01:14:08;;;;;;;0.30;0.20;;;14.10;99.90;;;;;;5036216;28;20417;-73
2021/08/31 01:16:35;;;;;;;0.60;0.40;;;14.10;99.90;;;;;;5035929;28;20180;-74
2021/08/31 01:19:01;;;;;;;0.95;0.40;;;14.00;99.90;;;;;;5035984;28;20174;-73
2021/08/31 01:21:26;;;;;;;0.30;0.30;;;14.10;99.90;;;;;;5036208;28;20174;-73
2021/08/31 01:23:52;;;;;;;0.30;0.17;;;14.00;99.90;;;;;;5036018;28;20182;-74
2021/08/31 01:26:18;;;;;;;0.67;0.63;;;14.00;99.90;;;;;;5035779;28;20244;-73
2021/08/31 01:28:43;;;;;;;1.63;1.53;;;14.10;99.90;;;;;;5035690;28;20201;-69
2021/08/31 01:31:09;;;;;;;0.40;0.40;;;14.00;99.90;;;;;;5034896;28;20185;-69
2021/08/31 01:33:35;;;;;;;1.13;1.13;;;14.10;99.90;;;;;;5035768;28;20209;-69
2021/08/31 01:36:25;;;;;;;2.55;2.00;;;14.10;99.90;;;;;;5034760;28;20291;-69
2021/08/31 01:38:52;;;;;;;0.30;0.20;;;14.10;99.90;;;;;;5035410;28;20316;-69
2021/08/31 01:41:18;;;;;;;1.80;1.50;;;14.10;99.90;;;;;;5034774;28;20177;-69
2021/08/31 01:43:44;;;;;;;0.77;0.77;;;14.10;99.90;;;;;;5035622;28;20178;-69
2021/08/31 01:46:10;;;;;;;2.00;1.90;;;14.00;99.90;;;;;;5035856;28;20428;-69
2021/08/31 01:48:35;;;;;;;1.13;1.13;;;14.00;99.90;;;;;;5034326;28;20265;-69
2021/08/31 01:51:01;;;;;;;1.83;1.73;;;13.90;99.90;;;;;;5035476;28;20648;-69
2021/08/31 01:53:27;;;;;;;0.40;0.40;;;13.90;99.90;;;;;;5035880;28;20197;-69
2021/08/31 01:55:53;;;;;;;0.50;0.40;;;14.00;99.90;;;;;;5034444;28;20486;-69
2021/08/31 01:58:18;;;;;;;2.42;0.50;;;14.10;99.90;;;;;;5034020;28;20229;-69
2021/08/31 02:00:44;;;;;;;0.37;0.20;;;14.00;99.90;;;;;;5035357;28;20215;-71
2021/08/31 02:03:10;;;;;;;4.07;1.70;;;13.90;99.90;;;;;;5034269;28;20177;-72
2021/08/31 02:05:35;;;;;;;0.30;0.20;;;13.80;99.90;;;;;;5035303;28;20442;-68
2021/08/31 02:08:01;;;;;;;0.93;0.70;;;13.80;99.90;;;;;;5033963;28;20272;-68
2021/08/31 02:10:27;;;;;;;1.10;0.97;;;13.80;99.90;;;;;;5035134;28;20665;-69
2021/08/31 02:12:52;;;;;;;1.37;1.27;;;13.80;99.90;;;;;;5035037;28;20216;-69
2021/08/31 02:15:18;;;;;;;0.47;0.47;;;13.80;99.90;;;;;;5035060;28;20188;-69
2021/08/31 02:17:44;;;;;;;0.30;0.10;;;13.80;99.90;;;;;;5034938;28;20181;-68
2021/08/31 02:20:10;;;;;;;2.30;1.60;;;13.70;99.90;;;;;;5034791;28;20630;-68
2021/08/31 02:22:36;;;;;;;0.30;0.20;;;13.60;99.90;;;;;;5034834;28;20181;-68
2021/08/31 02:25:02;;;;;;;1.23;1.23;;;13.70;99.90;;;;;;5034841;28;20198;-68
2021/08/31 02:27:27;;;;;;;2.20;0.70;;;13.60;99.90;;;;;;5033832;28;20192;-68
2021/08/31 02:29:53;;;;;;;0.30;0.10;;;13.70;99.90;;;;;;5033628;28;20460;-68
2021/08/31 02:32:18;;;;;;;2.20;1.93;;;13.60;99.90;;;;;;5034680;28;20219;-68
2021/08/31 02:34:44;;;;;;;1.17;1.07;;;13.60;99.90;;;;;;5034719;28;20351;-68
2021/08/31 02:37:09;;;;;;;0.93;0.53;;;13.60;99.90;;;;;;5034368;28;20192;-68
2021/08/31 02:39:35;;;;;;;0.30;0.20;;;13.60;99.90;;;;;;5033341;28;20189;-71
2021/08/31 02:42:00;;;;;;;0.30;0.20;;;13.60;99.90;;;;;;5034488;28;20200;-71
2021/08/31 02:44:26;;;;;;;1.33;1.23;;;13.60;99.90;;;;;;5034486;28;20197;-67
2021/08/31 02:46:51;;;;;;;1.63;0.63;;;13.60;99.90;;;;;;5034314;28;20521;-67
2021/08/31 02:49:17;;;;;;;2.63;2.40;;;13.60;99.90;;;;;;5033276;28;20231;-67
2021/08/31 02:51:42;;;;;;;1.40;1.30;;;13.70;99.90;;;;;;5033144;28;20191;-67
2021/08/31 02:54:08;;;;;;;0.90;0.90;;;13.60;99.90;;;;;;5034215;28;20189;-68
2021/08/31 02:56:33;;;;;;;2.13;1.97;;;13.60;99.90;;;;;;5033217;28;20275;-68
2021/08/31 02:58:59;;;;;;;2.87;2.77;;;13.50;99.90;;;;;;5038825;28;20232;-68
2021/08/31 03:01:30;;;;;;;1.37;1.37;;;13.60;99.90;;;;;;5032579;28;20622;-69
2021/08/31 03:03:57;;;;;;;0.30;0.20;;;13.60;99.90;;;;;;5032343;28;20400;-69
2021/08/31 03:06:24;;;;;;;0.30;0.20;;;13.60;99.90;;;;;;5032594;28;20616;-73
2021/08/31 03:08:49;;;;;;;0.47;0.47;;;13.60;99.90;;;;;;5032036;28;20238;-73
2021/08/31 03:11:15;;;;;;;1.47;1.37;;;13.60;99.90;;;;;;5032199;28;20177;-73
2021/08/31 03:13:40;;;;;;;0.30;0.10;;;13.60;99.90;;;;;;5032345;28;20212;-72
2021/08/31 03:16:06;;;;;;;0.90;0.90;;;13.60;99.90;;;;;;5033151;28;20614;-68
2021/08/31 03:18:31;;;;;;;0.30;0.20;;;13.60;99.90;;;;;;5033772;28;20569;-68
2021/08/31 03:20:57;;;;;;;0.40;0.30;;;13.50;99.90;;;;;;5033881;28;20260;-68
2021/08/31 03:23:23;;;;;;;0.30;0.20;;;13.40;99.90;;;;;;5033992;28;20191;-70
2021/08/31 03:25:48;;;;;;;0.40;0.30;;;13.40;99.90;;;;;;5032998;28;20203;-73
2021/08/31 03:28:14;;;;;;;0.40;0.40;;;13.40;99.90;;;;;;5033648;28;20185;-73
2021/08/31 03:30:40;;;;;;;0.40;0.30;;;13.40;99.90;;;;;;5033694;28;20224;-74
2021/08/31 03:33:05;;;;;;;1.37;1.07;;;13.40;99.90;;;;;;5033699;28;20209;-74
2021/08/31 03:35:31;;;;;;;0.50;0.50;;;13.40;99.90;;;;;;5033637;28;20192;-74
2021/08/31 03:37:57;;;;;;;0.30;0.30;;;13.40;99.90;;;;;;5032616;28;20268;-74
2021/08/31 03:40:22;;;;;;;1.67;1.57;;;13.40;99.90;;;;;;5033516;28;20192;-74
2021/08/31 03:42:48;;;;;;;0.37;0.30;;;13.40;99.90;;;;;;5033627;28;20188;-72
2021/08/31 03:45:15;;;;;;;0.40;0.40;;;13.30;99.90;;;;;;5033646;28;20178;-72
2021/08/31 03:47:41;;;;;;;0.52;0.52;;;13.40;99.90;;;;;;5033499;28;20181;-72
2021/08/31 03:50:08;;;;;;;1.38;1.27;;;13.30;99.90;;;;;;5033494;28;20626;-68
2021/08/31 03:52:34;;;;;;;0.30;0.20;;;13.20;99.90;;;;;;5033412;28;20212;-68
2021/08/31 03:55:00;;;;;;;0.77;0.63;;;13.20;99.90;;;;;;5033675;28;20182;-68
2021/08/31 03:57:25;;;;;;;2.20;1.40;;;13.30;99.90;;;;;;5032160;28;20520;-68
2021/08/31 03:59:51;;;;;;;0.80;0.80;;;13.20;99.90;;;;;;5032385;28;20436;-68
2021/08/31 04:02:16;;;;;;;0.97;0.83;;;13.30;99.90;;;;;;5031995;28;20266;-68
2021/08/31 04:04:42;;;;;;;0.47;0.47;;;13.30;99.90;;;;;;5033385;28;20537;-68
2021/08/31 04:07:07;;;;;;;0.30;0.20;;;13.20;99.90;;;;;;5033321;28;20189;-68
2021/08/31 04:09:33;;;;;;;0.30;0.20;;;13.20;99.90;;;;;;5033524;28;20181;-68
2021/08/31 04:11:58;;;;;;;0.30;0.20;;;13.20;99.90;;;;;;5033266;28;20208;-68
2021/08/31 04:14:24;;;;;;;1.90;1.50;;;13.30;99.90;;;;;;5033293;28;20189;-68
2021/08/31 04:16:49;;;;;;;0.30;0.20;;;13.10;99.90;;;;;;5033257;28;20177;-69
2021/08/31 04:19:15;;;;;;;1.00;1.00;;;13.10;99.90;;;;;;5035095;28;20595;-67
2021/08/31 04:21:41;;;;;;;0.55;0.55;;;13.10;99.90;;;;;;5037116;28;20170;-67
2021/08/31 04:24:07;;;;;;;1.73;0.83;;;13.10;99.90;;;;;;5036199;28;20180;-67
2021/08/31 04:26:33;;;;;;;5.33;3.13;;;13.10;99.90;;;;;;5036904;28;20178;-67
2021/08/31 04:28:58;;;;;;;1.27;1.23;;;13.00;99.90;;;;;;5036881;28;20276;-67
2021/08/31 04:31:24;;;;;;;2.33;1.23;;;13.00;99.90;;;;;;5037055;28;20209;-67
2021/08/31 04:33:51;;;;;;;0.90;0.80;;;13.10;99.90;;;;;;5036880;28;20232;-68
2021/08/31 04:36:18;;;;;;;0.32;0.25;;;13.10;99.90;;;;;;5036853;28;20349;-68
2021/08/31 04:38:43;;;;;;;3.17;1.27;;;13.00;99.90;;;;;;5036865;28;20530;-68
2021/08/31 04:41:10;;;;;;;1.37;1.03;;;13.00;99.90;;;;;;5036761;28;20185;-68
2021/08/31 04:43:36;;;;;;;0.45;0.43;;;12.90;99.90;;;;;;5036697;28;20182;-67
2021/08/31 04:46:01;;;;;;;0.50;0.40;;;13.00;99.90;;;;;;5036611;28;20267;-67
2021/08/31 04:48:27;;;;;;;1.23;1.03;;;12.90;99.90;;;;;;5036349;28;20173;-67
2021/08/31 04:50:52;;;;;;;40.50;4.23;;;12.90;99.90;;;;;;5036522;28;20178;-67
2021/08/31 04:53:20;;;;;;;2.67;1.27;;;13.00;99.90;;;;;;5036675;28;20288;-67
2021/08/31 04:55:45;;;;;;;1.75;1.65;;;13.00;99.90;;;;;;5036502;28;20174;-67
2021/08/31 04:58:11;;;;;;;4.87;4.57;;;13.00;99.90;;;;;;5035042;28;20637;-67
2021/08/31 05:00:36;;;;;;;1.67;1.57;;;13.00;99.90;;;;;;5036317;28;20174;-68
2021/08/31 05:03:02;;;;;;;0.30;0.30;;;13.00;99.90;;;;;;5036469;28;20185;-68
2021/08/31 05:05:27;;;;;;;1.67;1.57;;;13.30;99.90;;;;;;5036242;28;20633;-68
2021/08/31 05:07:53;;;;;;;0.93;0.93;;;13.80;99.90;;;;;;5036200;28;20189;-68
2021/08/31 05:10:21;;;;;;;1.10;1.10;;;14.20;99.90;;;;;;5036209;28;20177;-68
2021/08/31 05:12:46;;;;;;;1.50;1.50;;;14.40;99.90;;;;;;5036221;28;20580;-68
2021/08/31 05:15:12;;;;;;;0.40;0.30;;;14.90;99.90;;;;;;5036114;28;20421;-68
2021/08/31 05:17:39;;;;;;;1.13;0.90;;;15.30;99.90;;;;;;5035824;28;20625;-68
2021/08/31 05:20:05;;;;;;;1.02;1.02;;;15.40;99.90;;;;;;5035758;28;20174;-68
2021/08/31 05:22:31;;;;;;;0.82;0.82;;;15.40;99.90;;;;;;5035726;28;20268;-74
2021/08/31 05:25:01;;;;;;;0.40;0.30;;;15.30;99.90;;;;;;5035719;28;20312;-74
2021/08/31 05:27:27;;;;;;;0.47;0.47;;;15.80;99.90;;;;;;5035875;28;20615;-72
2021/08/31 05:29:52;;;;;;;2.40;2.27;;;15.50;99.90;;;;;;5036419;28;20185;-72
2021/08/31 05:32:19;;;;;;;2.20;2.00;;;16.40;99.90;;;;;;5050740;28;20296;-72
2021/08/31 05:34:45;;;;;;;0.40;0.30;;;16.90;1.00;;;;;;5055399;28;20194;-72
2021/08/31 05:37:10;;;;;;;0.40;0.20;;;16.90;1.00;;;;;;5055599;28;20428;-72
2021/08/31 05:39:36;;;;;;;0.40;0.20;;;17.40;1.00;;;;;;5055043;28;20423;-72
2021/08/31 05:42:04;;;;;;;1.63;1.53;;;17.80;1.00;;;;;;5055384;28;20235;-72
2021/08/31 05:44:31;;;;;;;1.50;1.40;;;17.70;99.90;;;;;;5055324;28;20574;-72
2021/08/31 05:46:56;;;;;;;0.40;0.20;;;17.60;1.00;;;;;;5055299;28;20531;-72
2021/08/31 05:49:22;;;;;;;1.80;1.70;;;17.70;1.00;;;;;;5048042;28;20935;-72
2021/08/31 05:51:48;;;;;;;1.63;1.53;;;18.00;99.90;;;;;;5046781;28;20280;-72
2021/08/31 05:54:13;;;;;;;0.90;0.90;;;18.10;99.90;;;;;;5051079;28;20447;-71
2021/08/31 05:56:40;;;;;;;0.87;0.87;;;18.40;99.90;;;;;;5045349;28;20212;-69
2021/08/31 05:59:05;;;;;;;0.40;0.20;;;19.00;1.00;;;;;;5054563;28;20227;-69
2021/08/31 06:01:31;;;;;;;0.57;0.53;;;18.90;1.00;;;;;;5054772;28;20427;-69
2021/08/31 06:03:57;;;;;;;1.67;1.30;;;18.90;1.00;;;;;;5054320;28;20203;-68
2021/08/31 06:06:22;;;;;;;0.83;0.83;;;18.90;1.00;;;;;;5054288;28;20299;-69
2021/08/31 06:08:48;;;;;;;1.07;0.93;;;19.20;1.00;;;;;;5047093;28;20193;-68
2021/08/31 06:11:17;;;;;;;1.53;0.87;;;19.50;99.90;;;;;;5053921;28;20177;-68
2021/08/31 06:13:43;;;;;;;0.40;0.23;;;19.50;1.00;;;;;;5054766;28;20419;-68
2021/08/31 06:16:08;;;;;;;0.87;0.80;;;19.60;99.90;;;;;;5053522;28;20822;-69
2021/08/31 06:18:34;;;;;;;0.60;0.60;;;19.60;1.00;;;;;;5053435;28;20191;-69
2021/08/31 06:21:00;;;;;;;0.93;0.93;;;19.50;99.90;;;;;;5052588;28;20185;-69
2021/08/31 06:23:25;;;;;;;1.23;1.13;;;19.80;99.90;;;;;;5054258;28;20189;-69
2021/08/31 06:25:51;;;;;;;0.60;0.57;;;19.80;99.90;;;;;;5053372;28;20450;-70
2021/08/31 06:28:17;;;;;;;0.40;0.20;;;19.40;99.90;;;;;;5058569;28;20253;-70
2021/08/31 06:30:42;;;;;;;0.40;0.20;;;19.60;1.00;;;;;;5062404;28;20184;-69
2021/08/31 06:33:08;;;;;;;0.50;0.30;;;20.20;1.00;;;;;;5053185;28;20292;-72
2021/08/31 06:35:33;;;;;;;2.50;0.60;;;20.80;1.00;;;;;;5054415;28;20200;-69
2021/08/31 06:37:59;;;;;;;0.93;0.67;;;20.90;99.90;;;;;;5053498;28;20230;-69
2021/08/31 06:40:25;;;;;;;0.40;0.10;;;21.20;99.90;;;;;;5054230;28;20188;-70
2021/08/31 06:42:51;;;;;;;1.37;1.27;;;21.50;1.00;;;;;;5072959;28;20184;-68
2021/08/31 06:45:17;;;;;;;0.40;0.20;;;21.20;41.10;;;;;;5044933;28;20438;-67
2021/08/31 06:47:42;;;;;;;1.30;0.50;;;20.80;99.90;;;;;;5046954;28;20431;-70
2021/08/31 06:50:15;;;;;;;2.20;1.03;;;21.50;99.90;;;;;;5043524;28;20204;-70
2021/08/31 06:52:41;;;;;;;1.13;1.13;;;21.10;99.90;;;;;;5052542;28;20235;-70
2021/08/31 06:55:07;;;;;;;2.07;0.83;;;21.30;99.90;;;;;;5052224;28;20903;-72
2021/08/31 06:57:33;;;;;;;0.60;0.50;;;21.50;1.00;;;;;;5046724;28;20447;-70
2021/08/31 06:59:59;;;;;;;0.40;0.20;;;20.40;99.90;;;;;;5054292;28;20438;-68
2021/08/31 07:02:25;;;;;;;3.63;2.50;;;20.30;1.00;;;;;;5047874;28;20192;-70
2021/08/31 07:04:52;;;;;;;0.40;0.20;;;19.90;99.90;;;;;;5053249;28;20191;-69
2021/08/31 07:07:18;;;;;;;0.40;0.40;;;19.30;1.00;;;;;;5053912;28;20427;-70
2021/08/31 07:09:43;;;;;;;0.40;0.20;;;18.20;99.90;;;;;;5054067;28;20438;-69
2021/08/31 07:12:11;;;;;;;0.40;0.20;;;17.30;1.00;;;;;;5053769;28;20205;-70
2021/08/31 07:14:37;;;;;;;1.70;1.50;;;17.30;1.00;;;;;;5054217;28;20201;-70
2021/08/31 07:17:03;;;;;;;0.40;0.17;;;17.50;27.90;;;;;;5054223;28;20455;-66
2021/08/31 07:19:29;;;;;;;0.90;0.67;;;18.10;1.00;;;;;;5036105;28;20460;-69
2021/08/31 07:21:55;;;;;;;0.40;0.20;;;17.90;1.00;;;;;;5034121;28;20174;-67
2021/08/31 07:24:21;;;;;;;2.93;1.70;;;17.30;1.00;;;;;;5044500;28;20434;-69
2021/08/31 07:26:47;;;;;;;0.40;0.30;;;17.10;80.40;;;;;;5052829;28;20618;-67
2021/08/31 07:29:12;;;;;;;0.70;0.70;;;17.10;99.90;;;;;;5053843;28;20433;-68
2021/08/31 07:31:38;;;;;;;0.60;0.60;;;16.90;99.90;;;;;;5053966;28;20184;-69
2021/08/31 07:34:03;;;;;;;0.40;0.20;;;16.80;99.90;;;;;;5052882;28;20185;-70
2021/08/31 07:36:29;;;;;;;1.23;1.03;;;17.10;99.90;;;;;;5053788;28;20189;-68
2021/08/31 07:38:55;;;;;;;0.80;0.60;;;17.00;99.90;;;;;;5053779;28;20319;-68
2021/08/31 07:41:22;;;;;;;1.13;0.60;;;16.90;99.90;;;;;;5053781;28;20183;-67
2021/08/31 07:43:48;;;;;;;0.40;0.20;;;16.90;99.90;;;;;;5053843;28;20438;-71
2021/08/31 07:46:14;;;;;;;0.60;0.40;;;16.90;99.90;;;;;;5052642;28;20873;-69
2021/08/31 07:48:40;;;;;;;0.60;0.60;;;16.90;99.90;;;;;;5053539;28;20452;-69
2021/08/31 07:51:05;;;;;;;0.40;0.20;;;17.10;99.90;;;;;;5054549;28;20442;-70
2021/08/31 07:53:31;;;;;;;0.40;0.20;;;17.30;99.90;;;;;;5037173;28;20595;-68
2021/08/31 07:55:57;;;;;;;0.73;0.60;;;17.30;99.90;;;;;;5037902;28;20216;-68
2021/08/31 07:58:22;;;;;;;2.07;1.30;;;17.50;99.90;;;;;;5036359;28;20201;-69
2021/08/31 08:00:48;;;;;;;1.87;1.77;;;17.30;99.90;;;;;;5037642;28;20184;-69
2021/08/31 08:03:13;;;;;;;0.40;0.20;;;17.30;99.90;;;;;;5038509;28;20185;-69
2021/08/31 08:05:39;;;;;;;2.00;1.50;;;17.50;99.90;;;;;;5057846;28;20220;-67
2021/08/31 08:08:04;;;;;;;0.40;0.20;;;17.40;99.90;;;;;;5056925;28;20173;-71
2021/08/31 08:10:30;;;;;;;0.40;0.20;;;17.50;99.90;;;;;;5056877;28;20185;-70
2021/08/31 08:12:55;;;;;;;2.40;2.20;;;17.60;99.90;;;;;;5057417;28;20196;-69
2021/08/31 08:15:22;;;;;;;15.50;4.93;;;17.70;99.90;;;;;;5057465;28;20278;-70
2021/08/31 08:17:48;;;;;;;0.40;0.10;;;17.80;99.90;;;;;;5056992;28;20165;-69
2021/08/31 08:20:14;;;;;;;0.60;0.47;;;18.00;99.90;;;;;;5057435;28;20461;-69
2021/08/31 08:22:39;;;;;;;0.50;0.30;;;18.10;60.70;;;;;;5057311;28;20510;-69
2021/08/31 08:25:06;;;;;;;1.27;1.17;;;18.00;80.10;;;;;;5057326;28;20482;-69
2021/08/31 08:27:33;;;;;;;0.50;0.20;;;18.20;32.60;;;;;;5057229;28;20189;-69
2021/08/31 08:29:58;;;;;;;0.60;0.40;;;18.30;1.00;;;;;;5056002;28;20435;-69
2021/08/31 08:32:24;;;;;;;0.40;0.20;;;18.50;1.00;;;;;;5057321;28;20481;-71
2021/08/31 08:34:50;;;;;;;0.40;0.20;;;18.80;1.00;;;;;;5057458;28;20177;-70
2021/08/31 08:37:16;;;;;;;1.00;0.90;;;19.00;1.00;;;;;;5057335;28;20246;-71
2021/08/31 08:39:41;;;;;;;2.20;1.47;;;18.80;1.00;;;;;;5055961;28;20661;-68
2021/08/31 08:42:09;;;;;;;2.43;1.80;;;18.70;1.00;;;;;;5057072;28;20518;-69
2021/08/31 08:44:35;;;;;;;0.50;0.30;;;18.70;1.00;;;;;;5057288;28;20495;-71
2021/08/31 08:47:01;;;;;;;0.40;0.20;;;18.90;1.00;;;;;;5056986;28;20435;-67
2021/08/31 08:49:27;;;;;;;5.80;3.37;;;19.00;99.90;;;;;;5055501;28;20492;-68
2021/08/31 08:51:54;;;;;;;2.77;2.57;;;19.10;99.90;;;;;;5052872;28;20432;-66
2021/08/31 08:54:20;;;;;;;1.37;0.87;;;19.10;1.00;;;;;;5036820;28;20912;-66
2021/08/31 08:56:46;;;;;;;0.50;0.30;;;19.20;99.90;;;;;;5036574;28;20424;-67
2021/08/31 08:59:11;;;;;;;0.40;0.20;;;19.30;1.00;;;;;;5036821;28;20189;-67
2021/08/31 09:01:47;;;;;;;0.50;0.30;;;19.30;1.00;;;;;;5036901;28;20196;-67
2021/08/31 09:04:14;;;;;;;0.50;0.40;;;19.40;1.00;;;;;;5045830;28;20172;-67
2021/08/31 09:06:41;;;;;;;1.10;0.87;;;19.20;1.00;;;;;;5055128;28;20915;-67
2021/08/31 09:09:07;;;;;;;0.40;0.20;;;19.20;1.00;;;;;;5055906;28;20758;-69
2021/08/31 09:11:34;;;;;;;1.80;0.93;;;19.40;1.00;;;;;;5055125;28;20922;-70
2021/08/31 09:14:22;;;;;;;0.50;0.30;;;19.50;99.90;;;;;;5056269;28;20792;-68
2021/08/31 09:16:52;;;;;;;0.40;0.20;;;19.70;99.90;;;;;;5056356;28;20431;-68
2021/08/31 09:19:31;;;;;;;0.40;0.20;;;19.70;99.90;;;;;;5056054;28;20452;-67
2021/08/31 09:22:20;;;;;;;0.40;0.20;;;19.90;99.90;;;;;;5056260;28;20431;-70
2021/08/31 09:25:03;;;;;;;0.90;0.60;;;20.30;99.90;;;;;;5056615;28;21096;-71
2021/08/31 09:27:43;;;;;;;0.50;0.37;;;20.20;99.90;;;;;;5056496;28;20433;-72
2021/08/31 09:30:37;;;;;;;0.50;0.40;;;20.10;99.90;;;;;;5054979;28;20450;-66
2021/08/31 09:33:08;;;;;;;0.93;0.93;;;20.20;1.00;;;;;;5066839;28;20500;-70
2021/08/31 09:35:37;;;;;;;0.77;0.60;;;20.00;99.90;;;;;;5072392;28;20855;-68
2021/08/31 09:38:05;;;;;;;0.50;0.20;;;20.10;1.00;;;;;;5054908;28;20442;-69
2021/08/31 09:40:36;;;;;;;0.40;0.20;;;20.40;1.00;;;;;;5056131;28;20990;-69
2021/08/31 09:43:09;;;;;;;1.27;0.80;;;20.70;99.90;;;;;;5055873;28;20411;-69
2021/08/31 09:45:40;;;;;;;0.53;0.40;;;20.80;99.90;;;;;;5055830;28;20977;-69
2021/08/31 09:48:09;;;;;;;2.30;1.73;;;20.50;99.90;;;;;;5055665;28;20754;-68
2021/08/31 09:50:39;;;;;;;1.17;0.90;;;20.70;1.00;;;;;;5054873;28;20522;-68
2021/08/31 09:53:17;;;;;;;1.23;0.93;;;20.80;99.90;;;;;;5042230;28;20468;-68
2021/08/31 09:55:46;;;;;;;0.40;0.20;;;20.30;1.00;;;;;;5034737;28;20431;-68
2021/08/31 09:58:19;;;;;;;0.60;0.33;;;20.50;99.90;;;;;;5034208;28;20460;-70
2021/08/31 10:00:46;;;;;;;0.40;0.30;;;20.60;99.90;;;;;;5034876;28;20428;-69
2021/08/31 10:03:12;;;;;;;0.40;0.20;;;20.70;99.90;;;;;;5037335;28;20483;-69
2021/08/31 10:05:40;;;;;;;1.83;1.27;;;20.90;99.90;;;;;;5055429;28;20435;-68
2021/08/31 10:08:06;;;;;;;1.03;0.93;;;20.90;99.90;;;;;;5046856;28;20956;-69
2021/08/31 10:10:34;;;;;;;1.33;0.90;;;20.60;1.00;;;;;;5047110;28;20501;-68
2021/08/31 10:13:11;;;;;;;2.60;1.33;;;20.80;99.90;;;;;;5044495;28;20458;-68
2021/08/31 10:15:41;;;;;;;0.40;0.20;;;20.60;1.00;;;;;;5044088;28;20518;-68
2021/08/31 10:18:10;;;;;;;1.27;1.10;;;20.80;1.00;;;;;;5043193;28;20425;-68
2021/08/31 10:20:43;;;;;;;0.60;0.30;;;21.00;2.50;;;;;;5044524;28;20427;-68
2021/08/31 10:23:09;;;;;;;1.60;1.00;;;21.50;9.90;;;;;;5045448;28;20437;-69
2021/08/31 10:25:35;;;;;;;1.57;0.70;;;21.50;78.20;;;;;;5044777;28;20497;-69
2021/08/31 10:28:01;;;;;;;1.80;1.70;;;21.90;99.90;;;;;;5043566;28;20431;-69
2021/08/31 10:30:29;;;;;;;1.50;1.07;;;22.10;1.00;;;;;;5045655;28;20184;-69
2021/08/31 10:33:00;;;;;;;0.40;0.20;;;21.70;1.00;;;;;;5048760;28;20634;-69
2021/08/31 10:35:36;;;;;;;1.50;0.70;;;21.60;1.00;;;;;;5052295;28;20785;-68
2021/08/31 10:38:10;;;;;;;0.40;0.20;;;21.20;99.90;;;;;;5054530;28;20937;-68
2021/08/31 10:40:45;;;;;;;0.80;0.50;;;20.70;99.90;;;;;;5054462;28;20463;-69
2021/08/31 10:43:19;;;;;;;1.23;1.13;;;20.60;99.90;;;;;;5054778;28;20484;-69
2021/08/31 10:45:53;;;;;;;1.67;1.57;;;21.00;1.00;;;;;;5055016;28;20435;-69
2021/08/31 10:48:22;;;;;;;0.67;0.50;;;21.30;1.00;;;;;;5054804;28;20423;-68
2021/08/31 10:51:11;;;;;;;0.90;0.90;;;21.50;99.90;;;;;;5053824;28;20423;-68
2021/08/31 10:53:38;;;;;;;1.73;1.50;;;21.20;99.90;;;;;;5035962;28;20464;-68
2021/08/31 10:56:22;;;;;;;3.13;1.53;;;21.10;1.00;;;;;;5035609;28;20420;-69
2021/08/31 10:58:51;;;;;;;3.23;0.83;;;21.30;1.00;;;;;;5034549;28;20817;-68
2021/08/31 11:01:18;;;;;;;0.83;0.83;;;21.30;1.00;;;;;;5033140;28;20432;-69
2021/08/31 11:03:44;;;;;;;0.70;0.60;;;21.30;1.00;;;;;;5038709;28;20424;-69
2021/08/31 11:06:31;;;;;;;7.40;0.93;;;21.80;1.00;;;;;;5054151;28;20743;-69
2021/08/31 11:09:18;;;;;;;2.10;1.20;;;21.70;99.90;;;;;;5053999;28;20453;-68
2021/08/31 11:11:47;;;;;;;2.73;1.70;;;21.60;1.00;;;;;;5053301;28;20466;-71
2021/08/31 11:14:14;;;;;;;0.50;0.40;;;21.50;1.00;;;;;;5053409;28;20443;-72
2021/08/31 11:16:40;;;;;;;1.37;1.27;;;21.30;1.00;;;;;;5052900;28;20915;-70
2021/08/31 11:19:21;;;;;;;1.47;0.87;;;21.40;1.00;;;;;;5052947;28;20423;-70
2021/08/31 11:21:49;;;;;;;0.40;0.20;;;21.20;9.90;;;;;;5052779;28;20185;-71
2021/08/31 11:24:15;;;;;;;0.70;0.50;;;20.80;99.90;;;;;;5053844;28;20445;-69
2021/08/31 11:26:40;;;;;;;1.80;1.70;;;20.90;99.90;;;;;;5053774;28;20427;-70
2021/08/31 11:29:08;;;;;;;0.83;0.73;;;21.40;1.00;;;;;;5052491;28;20196;-70
2021/08/31 11:31:34;;;;;;;0.60;0.60;;;21.80;99.90;;;;;;5053774;28;20192;-69
2021/08/31 11:33:59;;;;;;;1.33;1.23;;;21.90;99.90;;;;;;5071267;28;20466;-71
2021/08/31 11:36:28;;;;;;;0.87;0.50;;;22.10;99.90;;;;;;5073710;28;20768;-70
2021/08/31 11:38:58;;;;;;;1.13;1.03;;;22.40;99.90;;;;;;5072275;28;20180;-69
2021/08/31 11:41:50;;;;;;;1.27;1.13;;;22.30;99.90;;;;;;5073588;28;20445;-68
2021/08/31 11:44:16;;;;;;;0.50;0.20;;;22.60;99.90;;;;;;5072098;28;20434;-68
2021/08/31 11:46:48;;;;;;;0.47;0.20;;;21.80;1.00;;;;;;5072044;28;20454;-68
2021/08/31 11:49:15;;;;;;;3.23;2.50;;;21.50;99.90;;;;;;5073141;28;20442;-68
2021/08/31 11:51:59;;;;;;;1.13;1.13;;;21.40;53.30;;;;;;5069748;28;20424;-68
2021/08/31 11:54:27;;;;;;;0.50;0.30;;;21.90;1.00;;;;;;5032426;28;20534;-68
2021/08/31 11:57:05;;;;;;;0.50;0.20;;;22.10;1.00;;;;;;5032152;28;20929;-69
2021/08/31 11:59:51;;;;;;;0.50;0.23;;;21.90;1.00;;;;;;5033377;28;20548;-67
2021/08/31 12:02:22;;;;;;;0.60;0.50;;;21.30;1.00;;;;;;5032330;28;20752;-66
2021/08/31 12:04:57;;;;;;;0.50;0.23;;;21.10;1.00;;;;;;5047922;28;20430;-66
2021/08/31 12:07:26;;;;;;;0.80;0.80;;;21.60;1.00;;;;;;5053756;28;20454;-69
2021/08/31 12:09:54;;;;;;;0.50;0.20;;;22.10;99.90;;;;;;5053266;28;20915;-67
2021/08/31 12:12:20;;;;;;;0.50;0.30;;;22.40;99.90;;;;;;5053271;28;20465;-69
2021/08/31 12:14:48;;;;;;;0.40;0.10;;;22.80;99.90;;;;;;5053303;28;20507;-72
2021/08/31 12:17:26;;;;;;;0.50;0.20;;;22.80;99.90;;;;;;5053369;28;20979;-69
2021/08/31 12:20:10;;;;;;;1.10;0.77;;;22.70;99.90;;;;;;5052610;28;20431;-69
2021/08/31 12:22:45;;;;;;;4.40;1.20;;;22.10;99.90;;;;;;5053190;28;20423;-68
2021/08/31 12:25:12;;;;;;;1.90;1.70;;;21.30;99.90;;;;;;5052940;28;20445;-70
2021/08/31 12:27:41;;;;;;;1.43;0.80;;;21.30;99.90;;;;;;5052168;28;20427;-70
2021/08/31 12:30:11;;;;;;;0.83;0.33;;;21.80;99.90;;;;;;5053053;28;20813;-69
2021/08/31 12:32:38;;;;;;;0.50;0.30;;;22.60;99.90;;;;;;5052890;28;20857;-70
2021/08/31 12:35:26;;;;;;;1.13;1.03;;;22.80;99.90;;;;;;5053050;28;20430;-72
2021/08/31 12:38:07;;;;;;;0.50;0.20;;;22.60;99.90;;;;;;5052135;28;20500;-70
2021/08/31 12:40:35;;;;;;;0.50;0.20;;;22.20;99.90;;;;;;5054084;28;20427;-70
2021/08/31 12:43:09;;;;;;;0.80;0.80;;;22.50;99.90;;;;;;5055833;28;20761;-70
2021/08/31 12:45:35;;;;;;;0.53;0.30;;;22.10;99.90;;;;;;5056813;28;20423;-67
2021/08/31 12:48:02;;;;;;;0.40;0.20;;;21.40;1.00;;;;;;5055719;28;20449;-69
2021/08/31 12:50:28;;;;;;;0.77;0.77;;;21.30;1.00;;;;;;5055689;28;20218;-68